Time;durP1;ratioP1;P1;durP2;ratioP2;P2;SDS_P1;SDS_P2;PMS_P1;PMS_P2;Temp;Humidity;BMP_temperature;BMP_pressure;BME280_temperature;BME280_humidity;BME280_pressure;Samples;Min_cycle;Max_cycle;Signal;HPM_P1;HPM_P2
2021/06/03 00:01:48;;;;;;;4.03;3.13;;;;;;;19.33;59.43;100018.75;4996301;28;20513;-59
2021/06/03 00:04:14;;;;;;;3.92;3.17;;;;;;;19.32;59.43;100015.25;4996646;28;20038;-59
2021/06/03 00:06:39;;;;;;;7.45;2.80;;;;;;;19.31;59.60;100023.16;5012405;28;20130;-59
2021/06/03 00:09:07;;;;;;;3.92;2.53;;;;;;;19.28;59.74;100023.22;4997404;28;20051;-58
2021/06/03 00:11:32;;;;;;;7.45;3.03;;;;;;;19.28;59.46;100017.97;4996131;28;20057;-58
2021/06/03 00:13:58;;;;;;;6.43;2.80;;;;;;;19.27;59.40;100025.00;4995950;28;20490;-58
2021/06/03 00:16:23;;;;;;;3.97;2.55;;;;;;;19.25;59.46;100020.66;4997365;28;20076;-59
2021/06/03 00:18:49;;;;;;;3.58;3.00;;;;;;;19.24;59.78;100018.91;4995582;28;20513;-59
2021/06/03 00:21:14;;;;;;;4.38;3.20;;;;;;;19.20;59.60;100022.53;4995898;28;20030;-58
2021/06/03 00:23:40;;;;;;;3.58;2.95;;;;;;;19.19;59.65;100024.28;4979676;28;20042;-59
2021/06/03 00:26:05;;;;;;;4.07;2.97;;;;;;;19.16;59.60;100014.69;4997391;28;20076;-59
2021/06/03 00:28:31;;;;;;;5.25;2.67;;;;;;;19.19;59.58;100020.78;4997054;28;20062;-59
2021/06/03 00:30:57;;;;;;;2.92;2.20;;;;;;;19.17;59.59;100026.06;4995542;28;20034;-59
2021/06/03 00:33:24;;;;;;;3.72;2.75;;;;;;;19.19;59.45;100026.91;4995686;28;20386;-60
2021/06/03 00:35:50;;;;;;;3.45;2.60;;;;;;;19.19;59.65;100026.03;4995819;28;20493;-59
2021/06/03 00:38:16;;;;;;;2.88;2.45;;;;;;;19.18;59.56;100012.03;4995442;28;20038;-59
2021/06/03 00:40:42;;;;;;;4.15;2.60;;;;;;;19.17;59.63;100013.81;4997406;28;20040;-59
2021/06/03 00:43:08;;;;;;;3.08;2.30;;;;;;;19.17;59.48;100010.31;4997347;28;20478;-59
2021/06/03 00:45:36;;;;;;;3.55;2.42;;;;;;;19.17;59.65;100013.81;5012105;28;20034;-59
2021/06/03 00:48:03;;;;;;;4.82;2.90;;;;;;;19.16;59.68;100001.56;4995562;28;20061;-59
2021/06/03 00:50:57;;;;;;;3.58;2.60;;;;;;;19.16;59.35;100005.94;4995679;28;20042;-58
2021/06/03 00:53:22;;;;;;;4.05;2.70;;;;;;;19.16;59.69;100008.56;4993857;28;20050;-59
2021/06/03 00:55:54;;;;;;;3.33;2.75;;;;;;;19.16;59.91;100012.06;5011683;28;20034;-59
2021/06/03 00:58:20;;;;;;;3.97;2.67;;;;;;;19.16;59.87;100013.81;4995614;28;20563;-59
2021/06/03 01:00:48;;;;;;;5.88;3.05;;;;;;;19.16;59.75;100005.94;4995723;28;20045;-58
2021/06/03 01:03:13;;;;;;;3.20;2.70;;;;;;;19.15;59.66;100012.97;4994079;28;20054;-59
2021/06/03 01:05:49;;;;;;;3.05;2.30;;;;;;;19.15;59.49;100009.50;4996449;28;20041;-59
2021/06/03 01:08:21;;;;;;;5.25;2.80;;;;;;;19.13;59.52;100022.63;4995175;28;20525;-59
2021/06/03 01:11:01;;;;;;;3.53;2.72;;;;;;;19.13;59.57;100020.00;4995277;28;20126;-58
2021/06/03 01:13:39;;;;;;;5.05;2.53;;;;;;;19.13;59.62;100027.03;4995234;28;20385;-59
2021/06/03 01:16:05;;;;;;;4.07;2.92;;;;;;;19.11;59.80;100021.78;4994824;28;20030;-60
2021/06/03 01:18:33;;;;;;;5.90;3.08;;;;;;;19.12;59.52;100007.78;4994940;28;20528;-58
2021/06/03 01:21:01;;;;;;;3.83;2.40;;;;;;;19.12;59.88;100020.91;4995302;28;20065;-59
2021/06/03 01:23:39;;;;;;;3.38;2.45;;;;;;;19.12;59.58;100023.53;4995926;28;20042;-59
2021/06/03 01:26:06;;;;;;;3.10;2.40;;;;;;;19.11;59.81;100016.53;4996212;28;20049;-60
2021/06/03 01:28:34;;;;;;;2.70;2.22;;;;;;;19.10;59.88;100022.69;4994689;28;20057;-59
2021/06/03 01:30:59;;;;;;;5.57;2.30;;;;;;;19.10;59.72;100024.47;4978558;28;20039;-59
2021/06/03 01:33:27;;;;;;;4.57;2.55;;;;;;;19.07;60.10;100022.78;4995877;28;20048;-59
2021/06/03 01:35:57;;;;;;;3.72;2.38;;;;;;;19.08;59.91;100021.00;4994799;28;20034;-59
2021/06/03 01:38:29;;;;;;;4.97;3.15;;;;;;;19.07;59.92;100021.91;4995858;28;20030;-59
2021/06/03 01:40:57;;;;;;;6.00;2.67;;;;;;;19.07;59.95;100011.38;4995610;28;20094;-60
2021/06/03 01:43:24;;;;;;;3.72;2.78;;;;;;;19.06;59.98;100018.41;4994493;28;20034;-59
2021/06/03 01:45:50;;;;;;;5.95;3.03;;;;;;;19.05;60.06;100011.44;4995926;28;20081;-59
2021/06/03 01:48:18;;;;;;;5.78;2.97;;;;;;;19.06;60.26;100014.91;4994400;28;20389;-60
2021/06/03 01:50:47;;;;;;;3.90;2.83;;;;;;;19.05;60.08;100013.19;4978000;28;20085;-59
2021/06/03 01:53:14;;;;;;;5.50;3.15;;;;;;;19.04;60.03;100022.84;4994555;28;20046;-59
2021/06/03 01:55:40;;;;;;;4.82;2.50;;;;;;;19.04;60.05;100022.84;4993992;28;20039;-59
2021/06/03 01:58:06;;;;;;;3.65;2.80;;;;;;;19.03;60.22;100010.59;4995414;28;20042;-59
2021/06/03 02:00:32;;;;;;;4.53;2.78;;;;;;;19.02;60.18;100017.59;4995368;28;20038;-59
2021/06/03 02:02:58;;;;;;;3.58;2.60;;;;;;;19.01;60.34;100025.50;4993917;28;20096;-59
2021/06/03 02:05:24;;;;;;;5.32;2.80;;;;;;;18.99;60.45;100020.28;4994138;28;20125;-59
2021/06/03 02:07:50;;;;;;;3.72;2.60;;;;;;;19.00;60.36;100018.53;4995104;28;20405;-59
2021/06/03 02:10:18;;;;;;;6.00;3.47;;;;;;;18.99;60.44;100020.28;4995391;28;20038;-59
2021/06/03 02:13:09;;;;;;;4.43;3.13;;;;;;;19.00;60.22;100021.16;4995350;28;20162;-59
2021/06/03 02:15:37;;;;;;;4.13;2.95;;;;;;;18.98;60.65;100021.19;4982468;28;20054;-59
2021/06/03 02:18:10;;;;;;;6.03;3.55;;;;;;;18.98;60.49;100030.81;4977853;28;20066;-59
2021/06/03 02:20:40;;;;;;;7.45;3.30;;;;;;;18.97;60.80;100026.44;4977476;28;20043;-59
2021/06/03 02:23:06;;;;;;;10.75;3.30;;;;;;;18.97;60.67;100015.94;4993634;28;20108;-59
2021/06/03 02:25:32;;;;;;;6.97;3.97;;;;;;;18.96;60.74;100024.72;4993727;28;20074;-60
2021/06/03 02:27:58;;;;;;;4.50;3.42;;;;;;;18.96;60.89;100020.34;4995225;28;20500;-60
2021/06/03 02:30:24;;;;;;;4.97;3.38;;;;;;;18.97;61.11;100018.56;4977573;28;20037;-59
2021/06/03 02:32:51;;;;;;;4.85;3.58;;;;;;;18.98;60.62;100023.81;5009743;28;20375;-58
2021/06/03 02:35:17;;;;;;;6.22;3.28;;;;;;;18.99;61.04;100027.28;4993789;28;20121;-59
2021/06/03 02:37:44;;;;;;;4.70;3.08;;;;;;;19.00;60.90;100029.88;4977000;28;20408;-60
2021/06/03 02:40:15;;;;;;;5.57;3.80;;;;;;;18.99;60.98;100030.81;4993493;28;20046;-59
2021/06/03 02:42:43;;;;;;;8.50;4.40;;;;;;;19.00;61.13;100026.41;4977334;28;20437;-59
2021/06/03 02:45:14;;;;;;;5.75;3.63;;;;;;;19.00;60.91;100032.50;4993479;28;20068;-59
2021/06/03 02:47:41;;;;;;;5.63;3.60;;;;;;;19.00;61.66;100031.66;4993335;28;20092;-59
2021/06/03 02:50:09;;;;;;;4.50;3.42;;;;;;;19.02;61.22;100032.50;4992968;28;20141;-59
2021/06/03 02:52:35;;;;;;;3.75;3.35;;;;;;;19.04;61.40;100032.44;4977274;28;20062;-59
2021/06/03 02:55:02;;;;;;;6.00;4.30;;;;;;;19.02;61.28;100033.34;4976987;28;20039;-59
2021/06/03 02:57:27;;;;;;;4.03;3.63;;;;;;;19.04;61.10;100038.59;4993078;28;20110;-59
2021/06/03 02:59:53;;;;;;;5.97;3.60;;;;;;;19.05;61.29;100034.19;4992929;28;20046;-59
2021/06/03 03:02:18;;;;;;;5.95;3.80;;;;;;;19.04;61.09;100041.22;4993081;28;20140;-59
2021/06/03 03:04:43;;;;;;;7.15;3.38;;;;;;;19.05;61.48;100040.31;4993128;28;20030;-60
2021/06/03 03:07:11;;;;;;;6.20;4.13;;;;;;;19.06;61.55;100044.69;5009977;28;20038;-59
2021/06/03 03:09:36;;;;;;;6.57;4.10;;;;;;;19.07;61.55;100042.91;4993293;28;20034;-58
2021/06/03 03:12:03;;;;;;;5.88;3.85;;;;;;;19.07;61.45;100051.66;4992947;28;20045;-60
2021/06/03 03:14:28;;;;;;;5.65;3.42;;;;;;;19.08;61.63;100056.00;4994147;28;20050;-59
2021/06/03 03:16:55;;;;;;;7.82;4.15;;;;;;;19.07;61.69;100056.91;4994158;28;20030;-59
2021/06/03 03:19:21;;;;;;;5.05;3.70;;;;;;;19.08;61.66;100057.78;4994354;28;20030;-59
2021/06/03 03:21:46;;;;;;;7.35;3.85;;;;;;;19.08;61.54;100061.25;4994292;28;20042;-60
2021/06/03 03:24:11;;;;;;;6.88;3.45;;;;;;;19.08;61.45;100061.25;4994058;28;20046;-58
2021/06/03 03:26:37;;;;;;;4.55;3.42;;;;;;;19.09;61.44;100065.59;4993657;28;20470;-59
2021/06/03 03:29:02;;;;;;;7.85;4.20;;;;;;;19.09;61.73;100064.75;4992751;28;20125;-60
2021/06/03 03:31:27;;;;;;;5.65;3.70;;;;;;;19.08;62.03;100065.66;4993921;28;20041;-59
2021/06/03 03:33:56;;;;;;;6.75;3.60;;;;;;;19.07;61.82;100056.91;4993601;28;20030;-59
2021/06/03 03:36:22;;;;;;;10.77;4.95;;;;;;;19.08;61.97;100065.66;4992785;28;20034;-59
2021/06/03 03:38:47;;;;;;;7.65;4.10;;;;;;;19.08;62.07;100063.03;4994188;28;20034;-58
2021/06/03 03:41:12;;;;;;;5.93;4.07;;;;;;;19.09;62.23;100073.50;4976491;28;20481;-59
2021/06/03 03:43:38;;;;;;;4.45;3.55;;;;;;;19.07;61.80;100075.31;4993498;28;20118;-60
2021/06/03 03:46:03;;;;;;;7.18;4.30;;;;;;;19.09;62.07;100072.63;4993937;28;20494;-59
2021/06/03 03:48:29;;;;;;;8.88;4.30;;;;;;;19.07;62.28;100071.78;4994094;28;20046;-59
2021/06/03 03:50:54;;;;;;;4.78;4.00;;;;;;;19.07;62.23;100070.06;4992427;28;20061;-58
2021/06/03 03:53:21;;;;;;;6.43;3.90;;;;;;;19.06;61.93;100070.94;4993972;28;20514;-59
2021/06/03 03:55:46;;;;;;;5.10;4.13;;;;;;;19.08;62.26;100068.28;4992654;28;20042;-59
2021/06/03 03:58:11;;;;;;;5.43;4.07;;;;;;;19.08;62.23;100065.66;4993645;28;20042;-59
2021/06/03 04:00:37;;;;;;;6.15;4.20;;;;;;;19.09;62.25;100075.25;4993912;28;20073;-60
2021/06/03 04:03:05;;;;;;;6.35;3.83;;;;;;;19.10;62.36;100077.00;4993665;28;20069;-60
2021/06/03 04:05:31;;;;;;;10.32;4.55;;;;;;;19.08;62.33;100069.13;4993779;28;20038;-60
2021/06/03 04:07:56;;;;;;;7.72;4.25;;;;;;;19.08;62.53;100073.53;4994157;28;20540;-59
2021/06/03 04:10:22;;;;;;;7.07;4.22;;;;;;;19.07;62.51;100080.56;4993945;28;20046;-59
2021/06/03 04:12:49;;;;;;;5.72;5.10;;;;;;;19.06;62.67;100078.81;4992673;28;20043;-59
2021/06/03 04:15:15;;;;;;;6.13;4.55;;;;;;;19.08;62.55;100084.03;4992062;28;20490;-59
2021/06/03 04:17:41;;;;;;;6.90;4.35;;;;;;;19.07;62.71;100091.06;4992129;28;20030;-60
2021/06/03 04:20:11;;;;;;;7.22;4.45;;;;;;;19.07;62.51;100077.94;4993829;28;20065;-60
2021/06/03 04:22:36;;;;;;;6.55;4.38;;;;;;;19.08;62.77;100084.03;4976159;28;20073;-58
2021/06/03 04:25:04;;;;;;;9.30;4.78;;;;;;;19.08;62.57;100099.78;4993508;28;20061;-59
2021/06/03 04:27:30;;;;;;;6.82;4.75;;;;;;;19.09;62.77;100098.91;4992138;28;20026;-59
2021/06/03 04:29:56;;;;;;;7.20;4.38;;;;;;;19.08;62.93;100102.41;4992223;28;20088;-59
2021/06/03 04:32:21;;;;;;;7.28;4.47;;;;;;;19.09;62.99;100098.91;4993116;28;20026;-60
2021/06/03 04:34:46;;;;;;;8.30;4.82;;;;;;;19.09;62.78;100101.53;4992376;28;20034;-59
2021/06/03 04:37:12;;;;;;;10.45;5.35;;;;;;;19.09;63.01;100106.78;4992328;28;20031;-58
2021/06/03 04:39:37;;;;;;;5.38;3.72;;;;;;;19.09;62.96;100101.53;4996015;28;20030;-60
2021/06/03 04:42:04;;;;;;;8.95;5.10;;;;;;;19.09;63.24;100109.41;4997029;28;20546;-58
2021/06/03 04:44:30;;;;;;;7.53;4.85;;;;;;;19.09;62.97;100106.78;4996862;28;20038;-59
2021/06/03 04:46:55;;;;;;;8.85;3.97;;;;;;;19.10;63.10;100111.13;4996563;28;20042;-61
2021/06/03 04:49:21;;;;;;;7.35;4.28;;;;;;;19.10;63.16;100112.00;4996512;28;20125;-59
2021/06/03 04:51:46;;;;;;;5.68;4.20;;;;;;;19.10;63.46;100121.66;4996701;28;20490;-59
2021/06/03 04:54:12;;;;;;;6.68;4.40;;;;;;;19.10;63.25;100117.25;4996542;28;20038;-59
2021/06/03 04:56:38;;;;;;;5.63;4.57;;;;;;;19.09;63.19;100126.03;4995438;28;20390;-59
2021/06/03 04:59:03;;;;;;;6.72;4.70;;;;;;;19.08;63.24;100129.53;5011661;28;20037;-59
2021/06/03 05:01:29;;;;;;;6.18;4.22;;;;;;;19.09;63.61;100120.75;4996338;28;20490;-59
2021/06/03 05:03:54;;;;;;;10.05;4.78;;;;;;;19.09;63.66;100119.91;4996547;28;20054;-59
2021/06/03 05:06:20;;;;;;;6.90;4.97;;;;;;;19.09;63.68;100126.03;4996154;28;20041;-59
2021/06/03 05:08:45;;;;;;;8.50;4.57;;;;;;;19.07;63.61;100122.59;5011784;28;20097;-59
2021/06/03 05:11:11;;;;;;;10.90;4.63;;;;;;;19.08;63.68;100129.53;4995089;28;20546;-58
2021/06/03 05:13:36;;;;;;;10.93;4.78;;;;;;;19.09;63.95;100133.03;4996261;28;20552;-59
2021/06/03 05:16:02;;;;;;;8.73;5.03;;;;;;;19.09;63.66;100138.28;5011147;28;20034;-58
2021/06/03 05:18:28;;;;;;;6.53;4.55;;;;;;;19.08;63.90;100140.03;4978427;28;20406;-59
2021/06/03 05:20:53;;;;;;;5.88;4.47;;;;;;;19.09;63.83;100138.28;4996173;28;20031;-59
2021/06/03 05:23:20;;;;;;;8.07;4.85;;;;;;;19.08;63.92;100145.28;4994897;28;20030;-59
2021/06/03 05:25:46;;;;;;;6.40;4.55;;;;;;;19.09;63.80;100148.81;4995683;28;20524;-60
2021/06/03 05:28:13;;;;;;;6.28;4.38;;;;;;;19.08;63.90;100158.44;4994730;28;20069;-59
2021/06/03 05:30:38;;;;;;;8.60;4.75;;;;;;;19.10;64.12;100158.41;4994586;28;20034;-59
2021/06/03 05:33:04;;;;;;;6.28;4.03;;;;;;;19.10;64.04;100158.41;4995840;28;20398;-59
2021/06/03 05:35:29;;;;;;;13.32;4.93;;;;;;;19.10;64.10;100169.78;5011005;28;20030;-59
2021/06/03 05:37:55;;;;;;;6.43;4.63;;;;;;;19.11;63.85;100173.28;4995937;28;20104;-60
2021/06/03 05:40:26;;;;;;;9.85;4.97;;;;;;;19.10;64.19;100171.56;4978401;28;20034;-59
2021/06/03 05:42:53;;;;;;;7.18;4.03;;;;;;;19.11;64.18;100170.66;4994324;28;20081;-59
2021/06/03 05:45:19;;;;;;;8.90;4.78;;;;;;;19.11;64.03;100170.66;4994867;28;20053;-58
2021/06/03 05:47:45;;;;;;;6.00;4.55;;;;;;;19.12;64.11;100177.66;4995421;28;20038;-59
2021/06/03 05:50:14;;;;;;;8.50;4.38;;;;;;;19.11;64.12;100179.41;4995340;28;20045;-59
2021/06/03 05:52:41;;;;;;;7.88;4.78;;;;;;;19.10;64.42;100182.06;4978114;28;20034;-59
2021/06/03 05:55:08;;;;;;;5.68;4.07;;;;;;;19.12;64.47;100185.53;4978107;28;20043;-59
2021/06/03 05:57:34;;;;;;;8.75;4.80;;;;;;;19.12;64.44;100193.41;4994493;28;20088;-59
2021/06/03 06:00:00;;;;;;;7.72;4.55;;;;;;;19.12;64.40;100199.50;4978280;28;20049;-59
2021/06/03 06:02:42;;;;;;;6.75;4.45;;;;;;;19.11;64.24;100204.81;4993918;28;20050;-59
2021/06/03 06:07:52;;;;;;;7.85;5.60;;;;;;;19.10;64.66;100205.69;4994143;28;20068;-58
2021/06/03 06:10:17;;;;;;;7.50;4.78;;;;;;;19.10;64.66;100203.06;4993906;28;20030;-59
2021/06/03 06:12:43;;;;;;;8.25;5.78;;;;;;;19.08;64.96;100208.34;4995060;28;20039;-58
2021/06/03 06:15:08;;;;;;;9.48;4.80;;;;;;;19.09;64.81;100217.09;4994039;28;20110;-59
2021/06/03 06:17:34;;;;;;;12.45;6.03;;;;;;;19.08;65.09;100217.97;4995302;28;20038;-59
2021/06/03 06:19:59;;;;;;;7.82;5.38;;;;;;;19.07;64.57;100209.25;4995411;28;20038;-58
2021/06/03 06:22:24;;;;;;;14.27;5.90;;;;;;;19.06;65.19;100218.03;4993950;28;20034;-59
2021/06/03 06:24:50;;;;;;;7.43;5.25;;;;;;;19.07;64.92;100216.25;4994826;28;20173;-60
2021/06/03 06:27:15;;;;;;;8.57;6.05;;;;;;;19.07;65.24;100222.38;4994724;28;20057;-59
2021/06/03 06:29:40;;;;;;;10.95;6.20;;;;;;;19.07;65.35;100221.50;4993666;28;20117;-58
2021/06/03 06:32:06;;;;;;;9.02;5.95;;;;;;;19.07;65.57;100225.00;4993619;28;20077;-60
2021/06/03 06:34:32;;;;;;;9.32;5.85;;;;;;;19.08;65.44;100228.50;4994628;28;20084;-59
2021/06/03 06:36:57;;;;;;;11.35;6.43;;;;;;;19.07;65.58;100227.63;4994391;28;20417;-59
2021/06/03 06:39:22;;;;;;;9.73;6.85;;;;;;;19.08;65.49;100223.25;4994769;28;20034;-59
2021/06/03 06:41:48;;;;;;;8.30;6.25;;;;;;;19.08;65.51;100223.25;4993148;28;20034;-59
2021/06/03 06:44:14;;;;;;;10.93;6.57;;;;;;;19.07;65.62;100230.25;4994665;28;20450;-60
2021/06/03 06:46:40;;;;;;;11.27;6.82;;;;;;;19.10;65.56;100237.22;4994536;28;20034;-59
2021/06/03 06:49:05;;;;;;;9.02;6.57;;;;;;;19.09;65.81;100235.47;4994623;28;20050;-59
2021/06/03 06:51:31;;;;;;;13.48;6.60;;;;;;;19.10;65.75;100243.31;4994587;28;20402;-59
2021/06/03 06:53:56;;;;;;;13.98;7.13;;;;;;;19.10;65.73;100250.34;4993405;28;20042;-58
2021/06/03 06:56:25;;;;;;;11.70;7.60;;;;;;;19.10;65.91;100237.22;4994555;28;20126;-59
2021/06/03 06:58:51;;;;;;;10.63;6.28;;;;;;;19.11;66.06;100241.59;4994108;28;20474;-60
2021/06/03 07:01:20;;;;;;;11.60;6.47;;;;;;;19.10;66.04;100242.47;4994181;28;20053;-59
2021/06/03 07:03:45;;;;;;;10.45;6.50;;;;;;;19.11;66.05;100244.22;4992783;28;20050;-59
2021/06/03 07:06:11;;;;;;;10.80;6.55;;;;;;;19.10;66.10;100238.06;4994319;28;20049;-59
2021/06/03 07:08:36;;;;;;;9.27;6.68;;;;;;;19.09;65.98;100241.59;4994109;28;20038;-59
2021/06/03 07:11:01;;;;;;;10.70;6.63;;;;;;;19.09;66.05;100246.00;4994351;28;20061;-59
2021/06/03 07:13:27;;;;;;;12.57;7.30;;;;;;;19.07;66.36;100242.50;4994075;28;20034;-59
2021/06/03 07:15:52;;;;;;;11.30;6.75;;;;;;;19.06;66.39;100249.53;4993862;28;20494;-59
2021/06/03 07:18:21;;;;;;;8.57;6.90;;;;;;;19.05;66.48;100245.19;4993821;28;20038;-59
2021/06/03 07:20:46;;;;;;;10.55;6.97;;;;;;;19.07;66.39;100250.41;4993744;28;20049;-59
2021/06/03 07:23:11;;;;;;;13.27;7.53;;;;;;;19.07;66.63;100247.75;4994259;28;20035;-59
2021/06/03 07:25:39;;;;;;;10.68;6.53;;;;;;;19.08;66.53;100246.88;4993937;28;20054;-58
2021/06/03 07:28:05;;;;;;;11.23;7.72;;;;;;;19.09;66.52;100252.09;4993510;28;20035;-59
2021/06/03 07:30:31;;;;;;;10.98;7.43;;;;;;;19.09;66.89;100251.25;5008912;28;20044;-59
2021/06/03 07:32:57;;;;;;;8.98;7.15;;;;;;;19.10;66.90;100248.56;4976551;28;20133;-59
2021/06/03 07:35:25;;;;;;;11.88;7.95;;;;;;;19.10;66.69;100253.81;4992922;28;20117;-59
2021/06/03 07:37:51;;;;;;;11.00;7.25;;;;;;;19.12;66.80;100248.56;4994025;28;20034;-59
2021/06/03 07:40:20;;;;;;;8.57;6.55;;;;;;;19.12;66.66;100252.06;4993482;28;20117;-60
2021/06/03 07:42:47;;;;;;;12.18;7.50;;;;;;;19.12;66.83;100259.06;4992464;28;20042;-60
2021/06/03 07:45:15;;;;;;;13.43;7.22;;;;;;;19.11;66.74;100258.19;4992920;28;20096;-59
2021/06/03 07:47:41;;;;;;;8.90;7.60;;;;;;;19.12;66.99;100256.44;4992941;28;20038;-59
2021/06/03 07:50:12;;;;;;;14.55;7.53;;;;;;;19.13;66.86;100261.66;4992604;28;20073;-59
2021/06/03 07:52:38;;;;;;;9.48;7.40;;;;;;;19.14;67.07;100259.94;4992479;28;20042;-59
2021/06/03 07:55:07;;;;;;;11.52;8.65;;;;;;;19.14;67.01;100263.41;4976388;28;20039;-60
2021/06/03 07:57:33;;;;;;;10.05;7.88;;;;;;;19.14;67.21;100260.78;4992430;28;20405;-60
2021/06/03 07:59:58;;;;;;;10.93;7.72;;;;;;;19.15;67.17;100259.03;5009245;28;20035;-59
2021/06/03 08:02:24;;;;;;;10.80;8.85;;;;;;;19.14;67.35;100263.41;4993687;28;20529;-58
2021/06/03 08:04:49;;;;;;;12.88;8.32;;;;;;;19.15;67.27;100267.78;4993343;28;20041;-58
2021/06/03 08:07:15;;;;;;;11.80;8.63;;;;;;;19.16;67.45;100261.63;4992123;28;20038;-60
2021/06/03 08:09:41;;;;;;;11.40;7.55;;;;;;;19.16;67.50;100268.63;4993799;28;20077;-59
2021/06/03 08:12:07;;;;;;;10.73;7.78;;;;;;;19.17;67.47;100272.97;4993656;28;20116;-59
2021/06/03 08:14:33;;;;;;;13.35;7.25;;;;;;;19.19;67.50;100279.09;4997328;28;20026;-59
2021/06/03 08:16:58;;;;;;;10.23;7.72;;;;;;;19.18;67.42;100277.34;4996281;28;20044;-59
2021/06/03 08:19:24;;;;;;;8.52;7.45;;;;;;;19.21;67.34;100279.09;4997185;28;20034;-59
2021/06/03 08:21:50;;;;;;;11.70;7.57;;;;;;;19.21;67.51;100276.44;4996000;28;20049;-59
2021/06/03 08:24:15;;;;;;;12.57;7.35;;;;;;;19.21;67.71;100276.44;4997311;28;20034;-59
2021/06/03 08:26:41;;;;;;;11.93;7.70;;;;;;;19.22;67.49;100286.94;4996048;28;20118;-60
2021/06/03 08:29:06;;;;;;;11.35;7.68;;;;;;;19.24;67.56;100281.63;4997351;28;20117;-59
2021/06/03 08:31:32;;;;;;;10.68;8.27;;;;;;;19.24;67.74;100279.88;4995968;28;20038;-60
2021/06/03 08:34:02;;;;;;;15.70;9.02;;;;;;;19.27;67.92;100284.22;4996923;28;20034;-59
2021/06/03 08:36:27;;;;;;;10.93;8.23;;;;;;;19.28;67.67;100285.97;4997041;28;20142;-59
2021/06/03 08:38:54;;;;;;;13.30;7.50;;;;;;;19.30;67.73;100277.19;4995572;28;20468;-60
2021/06/03 08:41:19;;;;;;;9.40;8.38;;;;;;;19.35;67.89;100281.47;4995724;28;20126;-60
2021/06/03 08:43:45;;;;;;;11.65;7.43;;;;;;;19.37;67.49;100282.31;4996569;28;20062;-59
2021/06/03 08:46:10;;;;;;;9.82;8.18;;;;;;;19.40;67.66;100277.00;4996875;28;20034;-59
2021/06/03 08:48:35;;;;;;;13.57;8.75;;;;;;;19.42;67.68;100276.06;4995595;28;20125;-59
2021/06/03 08:51:04;;;;;;;13.38;8.20;;;;;;;19.44;67.75;100276.06;4996317;28;20038;-59
2021/06/03 08:53:30;;;;;;;11.85;9.15;;;;;;;19.46;67.71;100277.78;4995420;28;20054;-59
2021/06/03 08:58:43;;;;;;;14.48;10.25;;;;;;;19.51;67.67;100282.94;4996678;28;20122;-59
2021/06/03 09:01:11;;;;;;;12.15;9.82;;;;;;;19.53;67.79;100277.69;4979047;28;20069;-59
2021/06/03 09:03:37;;;;;;;13.88;10.27;;;;;;;19.54;67.73;100282.91;4994783;28;20077;-59
2021/06/03 09:06:03;;;;;;;12.43;9.52;;;;;;;19.57;67.85;100279.34;4996332;28;20085;-59
2021/06/03 09:08:31;;;;;;;18.60;10.75;;;;;;;19.60;67.62;100289.81;4995216;28;20027;-59
2021/06/03 09:11:04;;;;;;;15.23;10.30;;;;;;;19.61;67.85;100286.28;4996397;28;20045;-59
2021/06/03 09:13:34;;;;;;;12.00;9.93;;;;;;;19.61;67.87;100281.91;4979047;28;20034;-58
2021/06/03 09:16:15;;;;;;;13.63;10.32;;;;;;;19.64;67.46;100283.59;4995084;28;20125;-59
2021/06/03 09:18:45;;;;;;;13.63;11.18;;;;;;;19.64;67.66;100283.59;4995047;28;20030;-59
2021/06/03 09:21:14;;;;;;;13.10;10.43;;;;;;;19.65;67.63;100282.72;4979036;28;20038;-59
2021/06/03 09:23:42;;;;;;;15.55;11.35;;;;;;;19.66;67.90;100284.44;4995829;28;20118;-59
2021/06/03 09:26:13;;;;;;;16.05;10.27;;;;;;;19.67;67.76;100273.03;4978261;28;20042;-58
2021/06/03 09:28:47;;;;;;;13.57;10.50;;;;;;;19.68;67.44;100277.41;4994784;28;20461;-59
2021/06/03 09:31:14;;;;;;;13.57;10.32;;;;;;;19.69;67.87;100278.25;4978908;28;20049;-59
2021/06/03 09:33:44;;;;;;;12.23;10.70;;;;;;;19.68;67.63;100289.66;4995659;28;20042;-59
2021/06/03 09:36:26;;;;;;;15.07;11.00;;;;;;;19.69;68.06;100276.50;4978525;28;20038;-58
2021/06/03 09:38:56;;;;;;;15.13;11.15;;;;;;;19.70;67.93;100282.63;4995822;28;20039;-58
2021/06/03 09:41:23;;;;;;;17.42;12.52;;;;;;;19.71;67.98;100279.97;4978554;28;20035;-60
2021/06/03 09:44:01;;;;;;;16.50;11.65;;;;;;;19.72;67.92;100278.22;4995547;28;20042;-60
2021/06/03 09:46:26;;;;;;;14.18;11.32;;;;;;;19.73;67.68;100285.22;4995987;28;20525;-59
2021/06/03 09:48:52;;;;;;;14.80;11.45;;;;;;;19.74;67.83;100281.69;4995890;28;20042;-60
2021/06/03 09:51:20;;;;;;;27.80;12.52;;;;;;;19.75;68.25;100276.38;4995268;28;20049;-59
2021/06/03 09:54:04;;;;;;;16.92;12.98;;;;;;;19.77;67.73;100281.63;4978330;28;20150;-59
2021/06/03 09:56:31;;;;;;;17.08;11.73;;;;;;;19.77;67.81;100279.00;4994296;28;20052;-59
2021/06/03 09:59:00;;;;;;;16.63;12.75;;;;;;;19.78;68.02;100281.59;4994395;28;20181;-60
2021/06/03 10:01:45;;;;;;;16.13;12.07;;;;;;;19.79;67.82;100290.34;4979041;28;20049;-59
2021/06/03 10:04:15;;;;;;;18.38;12.75;;;;;;;19.80;68.20;100285.97;4994015;28;20073;-60
2021/06/03 10:07:08;;;;;;;14.45;12.48;;;;;;;19.80;67.85;100281.56;4993751;28;20042;-59
2021/06/03 10:09:34;;;;;;;20.15;12.18;;;;;;;19.80;67.88;100284.19;4995605;28;20034;-59
2021/06/03 10:12:02;;;;;;;16.75;12.20;;;;;;;19.81;68.32;100280.66;4995406;28;20046;-59
2021/06/03 10:14:28;;;;;;;16.00;13.20;;;;;;;19.83;68.08;100285.91;4977791;28;20045;-60
2021/06/03 10:16:54;;;;;;;23.63;12.25;;;;;;;19.85;68.25;100287.59;4995024;28;20130;-60
2021/06/03 10:19:28;;;;;;;15.32;11.43;;;;;;;19.86;68.04;100285.81;4995154;28;20124;-59
2021/06/03 10:22:12;;;;;;;14.80;11.85;;;;;;;19.87;67.77;100284.97;4994126;28;20034;-59
2021/06/03 10:24:48;;;;;;;;;;;;;;;19.86;67.57;100285.81;4995077;28;20088;-59
2021/06/03 10:27:16;;;;;;;15.23;11.60;;;;;;;19.85;68.19;100282.34;4994895;28;19914;-59
2021/06/03 10:29:42;;;;;;;16.33;12.32;;;;;;;19.87;68.14;100290.22;4994867;28;20379;-60
2021/06/03 10:32:11;;;;;;;15.82;12.55;;;;;;;19.89;67.99;100296.31;4977434;28;20037;-59
2021/06/03 10:34:38;;;;;;;15.13;12.70;;;;;;;19.90;68.16;100296.31;4977550;28;20042;-59
2021/06/03 10:37:04;;;;;;;18.73;12.98;;;;;;;19.90;68.25;100288.44;4993874;28;20045;-59
2021/06/03 10:39:32;;;;;;;16.33;13.25;;;;;;;19.91;68.20;100291.91;4993729;28;20046;-59
2021/06/03 10:42:00;;;;;;;14.48;12.07;;;;;;;19.92;68.13;100291.91;4994399;28;20439;-59
2021/06/03 10:44:29;;;;;;;17.38;12.48;;;;;;;19.93;68.20;100290.13;4977057;28;20049;-59
2021/06/03 10:46:55;;;;;;;20.58;12.82;;;;;;;19.96;68.08;100292.69;4994430;28;20177;-59
2021/06/03 10:49:23;;;;;;;22.35;13.77;;;;;;;19.97;68.31;100283.91;4993876;28;20129;-59
2021/06/03 10:51:50;;;;;;;15.80;11.60;;;;;;;19.98;68.31;100288.28;4977316;28;20027;-59
2021/06/03 10:54:53;;;;;;;22.48;13.80;;;;;;;20.01;67.88;100285.56;4977141;28;20037;-60
2021/06/03 10:57:22;;;;;;;15.10;12.60;;;;;;;20.02;68.26;100287.31;4993426;28;20049;-58
2021/06/03 10:59:49;;;;;;;18.50;14.02;;;;;;;20.04;68.26;100282.88;4993581;28;20030;-59
2021/06/03 11:02:16;;;;;;;21.23;14.20;;;;;;;20.05;68.31;100282.00;4992722;28;20489;-59
2021/06/03 11:04:42;;;;;;;15.38;12.70;;;;;;;20.10;67.99;100281.03;4977039;28;20076;-59
2021/06/03 11:07:09;;;;;;;18.45;13.55;;;;;;;20.13;68.37;100289.72;4976807;28;20073;-60
2021/06/03 11:09:39;;;;;;;18.08;14.02;;;;;;;20.14;68.38;100283.56;4976811;28;20556;-60
2021/06/03 11:12:15;;;;;;;16.50;13.20;;;;;;;20.18;68.06;100287.00;4994757;28;20030;-59
2021/06/03 11:15:02;;;;;;;16.65;12.55;;;;;;;20.20;68.16;100290.47;4976955;28;20092;-59
2021/06/03 11:17:51;;;;;;;20.63;12.85;;;;;;;20.20;68.18;100290.47;4993918;28;20092;-59
2021/06/03 11:20:16;;;;;;;16.70;13.02;;;;;;;20.21;68.36;100292.22;4976939;28;20072;-60
2021/06/03 11:22:42;;;;;;;17.85;12.27;;;;;;;20.21;68.12;100284.31;4992941;28;20490;-60
2021/06/03 11:25:07;;;;;;;14.05;12.13;;;;;;;20.22;68.41;100291.31;4994066;28;20501;-59
2021/06/03 11:27:39;;;;;;;15.63;11.90;;;;;;;20.23;67.96;100290.41;4993102;28;20482;-59